METAR Data
IDs: Format: Raw Decoded Include TAF

Data at: 0203 UTC 01 Mar 2021

LEMG 010130Z 22003KT 190V250 2800 DZ FEW006 SCT012 OVC070 13/12 Q1017 NOSIG